sensor_id;sensor_type;location;lat;lon;timestamp;P1;durP1;ratioP1;P2;durP2;ratioP2
287;SDS011;128;48.770;9.198;2024-01-30T00:01:30;12.20;;;6.60;;
287;SDS011;128;48.770;9.198;2024-01-30T00:03:56;11.97;;;5.70;;
287;SDS011;128;48.770;9.198;2024-01-30T00:06:22;9.67;;;5.70;;
287;SDS011;128;48.770;9.198;2024-01-30T00:08:48;11.07;;;5.93;;
287;SDS011;128;48.770;9.198;2024-01-30T00:11:15;7.33;;;4.20;;
287;SDS011;128;48.770;9.198;2024-01-30T00:13:41;11.70;;;6.00;;
287;SDS011;128;48.770;9.198;2024-01-30T00:16:07;13.67;;;5.53;;
287;SDS011;128;48.770;9.198;2024-01-30T00:18:34;11.43;;;5.80;;
287;SDS011;128;48.770;9.198;2024-01-30T00:21:00;9.50;;;5.93;;
287;SDS011;128;48.770;9.198;2024-01-30T00:23:25;9.50;;;5.10;;
287;SDS011;128;48.770;9.198;2024-01-30T00:25:51;11.00;;;5.87;;
287;SDS011;128;48.770;9.198;2024-01-30T00:28:17;17.43;;;6.80;;
287;SDS011;128;48.770;9.198;2024-01-30T00:30:43;14.93;;;5.30;;
287;SDS011;128;48.770;9.198;2024-01-30T00:33:09;9.03;;;4.67;;
287;SDS011;128;48.770;9.198;2024-01-30T00:35:35;10.00;;;5.07;;
287;SDS011;128;48.770;9.198;2024-01-30T00:38:01;10.57;;;4.47;;
287;SDS011;128;48.770;9.198;2024-01-30T00:40:27;7.33;;;4.47;;
287;SDS011;128;48.770;9.198;2024-01-30T00:42:53;10.70;;;5.50;;
287;SDS011;128;48.770;9.198;2024-01-30T00:45:19;8.33;;;4.80;;
287;SDS011;128;48.770;9.198;2024-01-30T00:47:45;9.00;;;4.93;;
287;SDS011;128;48.770;9.198;2024-01-30T00:50:11;13.47;;;5.03;;
287;SDS011;128;48.770;9.198;2024-01-30T00:52:37;9.13;;;4.30;;
287;SDS011;128;48.770;9.198;2024-01-30T00:55:04;7.30;;;5.30;;
287;SDS011;128;48.770;9.198;2024-01-30T00:57:30;13.63;;;5.17;;
287;SDS011;128;48.770;9.198;2024-01-30T00:59:56;10.80;;;4.17;;
287;SDS011;128;48.770;9.198;2024-01-30T01:02:22;19.07;;;5.40;;
287;SDS011;128;48.770;9.198;2024-01-30T01:04:48;8.90;;;4.13;;
287;SDS011;128;48.770;9.198;2024-01-30T01:07:15;12.10;;;5.93;;
287;SDS011;128;48.770;9.198;2024-01-30T01:09:40;10.90;;;4.97;;
287;SDS011;128;48.770;9.198;2024-01-30T01:12:06;10.07;;;5.43;;
287;SDS011;128;48.770;9.198;2024-01-30T01:14:32;8.20;;;4.93;;
287;SDS011;128;48.770;9.198;2024-01-30T01:16:58;10.70;;;5.43;;
287;SDS011;128;48.770;9.198;2024-01-30T01:19:24;8.53;;;5.47;;
287;SDS011;128;48.770;9.198;2024-01-30T01:21:50;10.17;;;5.00;;
287;SDS011;128;48.770;9.198;2024-01-30T01:24:16;12.13;;;6.90;;
287;SDS011;128;48.770;9.198;2024-01-30T01:26:42;9.17;;;5.20;;
287;SDS011;128;48.770;9.198;2024-01-30T01:29:08;9.33;;;5.17;;
287;SDS011;128;48.770;9.198;2024-01-30T01:31:36;8.47;;;5.23;;
287;SDS011;128;48.770;9.198;2024-01-30T01:34:08;12.20;;;5.23;;
287;SDS011;128;48.770;9.198;2024-01-30T01:36:34;10.50;;;4.90;;
287;SDS011;128;48.770;9.198;2024-01-30T01:39:00;6.80;;;4.53;;
287;SDS011;128;48.770;9.198;2024-01-30T01:41:29;14.10;;;5.50;;
287;SDS011;128;48.770;9.198;2024-01-30T01:43:56;17.53;;;5.70;;
287;SDS011;128;48.770;9.198;2024-01-30T01:46:22;7.40;;;4.50;;
287;SDS011;128;48.770;9.198;2024-01-30T01:48:48;9.37;;;5.03;;
287;SDS011;128;48.770;9.198;2024-01-30T01:51:14;8.97;;;5.40;;
287;SDS011;128;48.770;9.198;2024-01-30T01:53:40;8.67;;;5.83;;
287;SDS011;128;48.770;9.198;2024-01-30T01:56:06;12.10;;;6.00;;
287;SDS011;128;48.770;9.198;2024-01-30T01:58:32;12.97;;;5.60;;
287;SDS011;128;48.770;9.198;2024-01-30T02:00:58;9.40;;;5.80;;
287;SDS011;128;48.770;9.198;2024-01-30T02:03:24;14.20;;;5.70;;
287;SDS011;128;48.770;9.198;2024-01-30T02:05:50;18.40;;;6.27;;
287;SDS011;128;48.770;9.198;2024-01-30T02:08:16;8.37;;;5.20;;
287;SDS011;128;48.770;9.198;2024-01-30T02:10:42;12.13;;;5.50;;
287;SDS011;128;48.770;9.198;2024-01-30T02:13:08;9.27;;;5.33;;
287;SDS011;128;48.770;9.198;2024-01-30T02:15:34;9.93;;;4.73;;
287;SDS011;128;48.770;9.198;2024-01-30T02:18:00;6.40;;;3.87;;
287;SDS011;128;48.770;9.198;2024-01-30T02:20:26;11.17;;;4.63;;
287;SDS011;128;48.770;9.198;2024-01-30T02:22:54;11.00;;;5.33;;
287;SDS011;128;48.770;9.198;2024-01-30T02:25:29;7.60;;;4.47;;
287;SDS011;128;48.770;9.198;2024-01-30T02:27:55;7.57;;;5.10;;
287;SDS011;128;48.770;9.198;2024-01-30T02:30:21;7.33;;;4.90;;
287;SDS011;128;48.770;9.198;2024-01-30T02:32:47;8.50;;;4.50;;
287;SDS011;128;48.770;9.198;2024-01-30T02:35:13;14.83;;;5.60;;
287;SDS011;128;48.770;9.198;2024-01-30T02:37:39;7.87;;;4.90;;
287;SDS011;128;48.770;9.198;2024-01-30T02:40:05;13.33;;;5.80;;
287;SDS011;128;48.770;9.198;2024-01-30T02:42:31;10.37;;;6.30;;
287;SDS011;128;48.770;9.198;2024-01-30T02:44:57;11.90;;;5.90;;
287;SDS011;128;48.770;9.198;2024-01-30T02:47:23;12.80;;;7.00;;
287;SDS011;128;48.770;9.198;2024-01-30T02:49:49;21.73;;;6.57;;
287;SDS011;128;48.770;9.198;2024-01-30T02:52:15;11.90;;;6.10;;
287;SDS011;128;48.770;9.198;2024-01-30T02:54:41;11.53;;;6.50;;
287;SDS011;128;48.770;9.198;2024-01-30T02:57:07;10.30;;;5.57;;
287;SDS011;128;48.770;9.198;2024-01-30T02:59:33;10.70;;;5.77;;
287;SDS011;128;48.770;9.198;2024-01-30T03:02:00;10.50;;;6.20;;
287;SDS011;128;48.770;9.198;2024-01-30T03:04:26;10.33;;;6.20;;
287;SDS011;128;48.770;9.198;2024-01-30T03:06:54;8.70;;;5.40;;
287;SDS011;128;48.770;9.198;2024-01-30T03:09:21;11.00;;;6.07;;
287;SDS011;128;48.770;9.198;2024-01-30T03:11:47;11.13;;;5.80;;
287;SDS011;128;48.770;9.198;2024-01-30T03:14:13;10.17;;;5.60;;
287;SDS011;128;48.770;9.198;2024-01-30T03:16:39;12.80;;;6.03;;
287;SDS011;128;48.770;9.198;2024-01-30T03:19:07;11.90;;;5.67;;
287;SDS011;128;48.770;9.198;2024-01-30T03:21:34;9.77;;;5.50;;
287;SDS011;128;48.770;9.198;2024-01-30T03:24:00;6.97;;;4.40;;
287;SDS011;128;48.770;9.198;2024-01-30T03:26:26;13.47;;;5.83;;
287;SDS011;128;48.770;9.198;2024-01-30T03:28:52;9.23;;;5.00;;
287;SDS011;128;48.770;9.198;2024-01-30T03:31:18;9.90;;;4.80;;
287;SDS011;128;48.770;9.198;2024-01-30T03:33:44;9.80;;;5.50;;
287;SDS011;128;48.770;9.198;2024-01-30T03:36:10;11.20;;;5.70;;
287;SDS011;128;48.770;9.198;2024-01-30T03:38:36;7.87;;;4.97;;
287;SDS011;128;48.770;9.198;2024-01-30T03:41:02;9.83;;;4.87;;
287;SDS011;128;48.770;9.198;2024-01-30T03:43:28;12.10;;;5.07;;
287;SDS011;128;48.770;9.198;2024-01-30T03:45:54;7.63;;;4.27;;
287;SDS011;128;48.770;9.198;2024-01-30T03:48:20;8.20;;;4.87;;
287;SDS011;128;48.770;9.198;2024-01-30T03:50:46;6.20;;;4.10;;
287;SDS011;128;48.770;9.198;2024-01-30T03:53:12;6.13;;;4.07;;
287;SDS011;128;48.770;9.198;2024-01-30T03:55:38;8.77;;;4.37;;
287;SDS011;128;48.770;9.198;2024-01-30T03:58:04;9.40;;;4.70;;
287;SDS011;128;48.770;9.198;2024-01-30T04:00:30;6.67;;;4.03;;
287;SDS011;128;48.770;9.198;2024-01-30T04:02:56;8.63;;;3.93;;
287;SDS011;128;48.770;9.198;2024-01-30T04:05:22;9.40;;;3.70;;
287;SDS011;128;48.770;9.198;2024-01-30T04:07:48;8.70;;;4.97;;
287;SDS011;128;48.770;9.198;2024-01-30T04:10:14;5.60;;;3.40;;
287;SDS011;128;48.770;9.198;2024-01-30T04:12:39;9.30;;;4.60;;
287;SDS011;128;48.770;9.198;2024-01-30T04:15:05;7.47;;;4.10;;
287;SDS011;128;48.770;9.198;2024-01-30T04:17:32;8.67;;;4.23;;
287;SDS011;128;48.770;9.198;2024-01-30T04:19:58;8.10;;;4.40;;
287;SDS011;128;48.770;9.198;2024-01-30T04:22:24;6.77;;;4.20;;
287;SDS011;128;48.770;9.198;2024-01-30T04:24:50;7.83;;;4.43;;
287;SDS011;128;48.770;9.198;2024-01-30T04:27:16;6.23;;;3.53;;
287;SDS011;128;48.770;9.198;2024-01-30T04:29:42;7.37;;;4.17;;
287;SDS011;128;48.770;9.198;2024-01-30T04:32:09;6.63;;;3.77;;
287;SDS011;128;48.770;9.198;2024-01-30T04:34:36;7.13;;;3.70;;
287;SDS011;128;48.770;9.198;2024-01-30T04:37:02;8.50;;;4.20;;
287;SDS011;128;48.770;9.198;2024-01-30T04:39:28;7.57;;;4.43;;
287;SDS011;128;48.770;9.198;2024-01-30T04:41:54;7.67;;;4.50;;
287;SDS011;128;48.770;9.198;2024-01-30T04:44:20;13.53;;;4.87;;
287;SDS011;128;48.770;9.198;2024-01-30T04:46:45;6.90;;;4.40;;
287;SDS011;128;48.770;9.198;2024-01-30T04:49:11;5.60;;;3.73;;
287;SDS011;128;48.770;9.198;2024-01-30T04:51:37;9.30;;;4.30;;
287;SDS011;128;48.770;9.198;2024-01-30T04:54:03;9.90;;;4.70;;
287;SDS011;128;48.770;9.198;2024-01-30T04:56:29;8.90;;;4.73;;
287;SDS011;128;48.770;9.198;2024-01-30T04:58:56;11.03;;;4.63;;
287;SDS011;128;48.770;9.198;2024-01-30T05:01:22;9.83;;;4.43;;
287;SDS011;128;48.770;9.198;2024-01-30T05:03:48;8.90;;;3.70;;
287;SDS011;128;48.770;9.198;2024-01-30T05:06:23;11.90;;;5.20;;
287;SDS011;128;48.770;9.198;2024-01-30T05:08:49;10.20;;;5.30;;
287;SDS011;128;48.770;9.198;2024-01-30T05:11:15;9.47;;;5.60;;
287;SDS011;128;48.770;9.198;2024-01-30T05:13:41;7.97;;;4.90;;
287;SDS011;128;48.770;9.198;2024-01-30T05:16:07;11.13;;;5.40;;
287;SDS011;128;48.770;9.198;2024-01-30T05:18:33;12.73;;;6.33;;
287;SDS011;128;48.770;9.198;2024-01-30T05:20:58;16.00;;;5.67;;
287;SDS011;128;48.770;9.198;2024-01-30T05:23:24;12.40;;;5.40;;
287;SDS011;128;48.770;9.198;2024-01-30T05:25:50;10.53;;;5.40;;
287;SDS011;128;48.770;9.198;2024-01-30T05:28:16;15.27;;;6.67;;
287;SDS011;128;48.770;9.198;2024-01-30T05:30:42;10.20;;;5.77;;
287;SDS011;128;48.770;9.198;2024-01-30T05:33:08;11.97;;;5.60;;
287;SDS011;128;48.770;9.198;2024-01-30T05:35:34;9.23;;;4.80;;
287;SDS011;128;48.770;9.198;2024-01-30T05:38:00;7.60;;;5.10;;
287;SDS011;128;48.770;9.198;2024-01-30T05:40:26;10.23;;;5.83;;
287;SDS011;128;48.770;9.198;2024-01-30T05:42:52;11.67;;;6.00;;
287;SDS011;128;48.770;9.198;2024-01-30T05:45:18;9.93;;;5.27;;
287;SDS011;128;48.770;9.198;2024-01-30T05:47:44;11.80;;;6.13;;
287;SDS011;128;48.770;9.198;2024-01-30T05:50:10;10.33;;;5.73;;
287;SDS011;128;48.770;9.198;2024-01-30T05:52:36;15.43;;;6.77;;
287;SDS011;128;48.770;9.198;2024-01-30T05:55:02;18.00;;;6.57;;
287;SDS011;128;48.770;9.198;2024-01-30T05:57:28;11.30;;;6.10;;
287;SDS011;128;48.770;9.198;2024-01-30T05:59:54;10.10;;;6.00;;
287;SDS011;128;48.770;9.198;2024-01-30T06:02:20;14.70;;;5.97;;
287;SDS011;128;48.770;9.198;2024-01-30T06:04:46;10.60;;;6.10;;
287;SDS011;128;48.770;9.198;2024-01-30T06:07:12;12.53;;;6.83;;
287;SDS011;128;48.770;9.198;2024-01-30T06:09:38;9.77;;;5.90;;
287;SDS011;128;48.770;9.198;2024-01-30T06:12:05;9.80;;;5.77;;
287;SDS011;128;48.770;9.198;2024-01-30T06:14:31;11.70;;;6.03;;
287;SDS011;128;48.770;9.198;2024-01-30T06:16:57;14.10;;;5.97;;
287;SDS011;128;48.770;9.198;2024-01-30T06:19:23;13.50;;;5.63;;
287;SDS011;128;48.770;9.198;2024-01-30T06:21:49;13.43;;;5.90;;
287;SDS011;128;48.770;9.198;2024-01-30T06:24:15;11.73;;;6.80;;
287;SDS011;128;48.770;9.198;2024-01-30T06:26:42;12.30;;;6.50;;
287;SDS011;128;48.770;9.198;2024-01-30T06:29:08;17.27;;;6.57;;
287;SDS011;128;48.770;9.198;2024-01-30T06:31:39;13.07;;;6.20;;
287;SDS011;128;48.770;9.198;2024-01-30T06:34:05;12.40;;;7.10;;
287;SDS011;128;48.770;9.198;2024-01-30T06:36:31;12.60;;;7.30;;
287;SDS011;128;48.770;9.198;2024-01-30T06:38:57;16.77;;;7.13;;
287;SDS011;128;48.770;9.198;2024-01-30T06:41:23;15.17;;;7.20;;
287;SDS011;128;48.770;9.198;2024-01-30T06:43:49;13.30;;;5.77;;
287;SDS011;128;48.770;9.198;2024-01-30T06:46:15;15.60;;;5.87;;
287;SDS011;128;48.770;9.198;2024-01-30T06:48:41;14.20;;;6.33;;
287;SDS011;128;48.770;9.198;2024-01-30T06:51:09;11.60;;;6.33;;
287;SDS011;128;48.770;9.198;2024-01-30T06:53:35;18.23;;;8.27;;
287;SDS011;128;48.770;9.198;2024-01-30T06:56:01;12.03;;;6.77;;
287;SDS011;128;48.770;9.198;2024-01-30T06:58:27;11.87;;;6.40;;
287;SDS011;128;48.770;9.198;2024-01-30T07:00:53;10.60;;;5.57;;
287;SDS011;128;48.770;9.198;2024-01-30T07:03:19;12.00;;;6.97;;
287;SDS011;128;48.770;9.198;2024-01-30T07:05:45;12.17;;;7.30;;
287;SDS011;128;48.770;9.198;2024-01-30T07:08:11;17.87;;;9.27;;
287;SDS011;128;48.770;9.198;2024-01-30T07:10:37;28.77;;;12.50;;
287;SDS011;128;48.770;9.198;2024-01-30T07:13:03;18.10;;;10.00;;
287;SDS011;128;48.770;9.198;2024-01-30T07:15:30;18.10;;;9.03;;
287;SDS011;128;48.770;9.198;2024-01-30T07:17:56;19.40;;;9.53;;
287;SDS011;128;48.770;9.198;2024-01-30T07:20:22;18.93;;;8.37;;
287;SDS011;128;48.770;9.198;2024-01-30T07:22:48;13.30;;;8.63;;
287;SDS011;128;48.770;9.198;2024-01-30T07:25:14;13.03;;;6.50;;
287;SDS011;128;48.770;9.198;2024-01-30T07:27:42;12.13;;;6.60;;
287;SDS011;128;48.770;9.198;2024-01-30T07:30:08;16.10;;;6.77;;
287;SDS011;128;48.770;9.198;2024-01-30T07:32:34;14.27;;;6.70;;
287;SDS011;128;48.770;9.198;2024-01-30T07:34:59;15.50;;;7.10;;
287;SDS011;128;48.770;9.198;2024-01-30T07:37:25;17.40;;;6.57;;
287;SDS011;128;48.770;9.198;2024-01-30T07:39:51;14.23;;;5.67;;
287;SDS011;128;48.770;9.198;2024-01-30T07:42:18;7.93;;;4.93;;
287;SDS011;128;48.770;9.198;2024-01-30T07:44:43;9.73;;;4.83;;
287;SDS011;128;48.770;9.198;2024-01-30T07:47:09;13.40;;;5.40;;
287;SDS011;128;48.770;9.198;2024-01-30T07:49:35;9.70;;;6.10;;
287;SDS011;128;48.770;9.198;2024-01-30T07:52:01;13.00;;;6.90;;
287;SDS011;128;48.770;9.198;2024-01-30T07:54:27;13.20;;;5.60;;
287;SDS011;128;48.770;9.198;2024-01-30T07:56:53;12.40;;;5.47;;
287;SDS011;128;48.770;9.198;2024-01-30T07:59:20;13.33;;;6.50;;
287;SDS011;128;48.770;9.198;2024-01-30T08:01:49;9.60;;;4.70;;
287;SDS011;128;48.770;9.198;2024-01-30T08:04:15;11.30;;;5.33;;
287;SDS011;128;48.770;9.198;2024-01-30T08:06:42;15.03;;;5.73;;
287;SDS011;128;48.770;9.198;2024-01-30T08:09:08;13.20;;;6.83;;
287;SDS011;128;48.770;9.198;2024-01-30T08:11:34;12.30;;;6.10;;
287;SDS011;128;48.770;9.198;2024-01-30T08:14:00;12.63;;;5.87;;
287;SDS011;128;48.770;9.198;2024-01-30T08:16:26;12.47;;;6.27;;
287;SDS011;128;48.770;9.198;2024-01-30T08:18:52;11.97;;;6.40;;
287;SDS011;128;48.770;9.198;2024-01-30T08:21:20;17.63;;;8.40;;
287;SDS011;128;48.770;9.198;2024-01-30T08:23:46;13.23;;;7.10;;
287;SDS011;128;48.770;9.198;2024-01-30T08:26:12;12.87;;;6.00;;
287;SDS011;128;48.770;9.198;2024-01-30T08:28:38;12.97;;;6.90;;
287;SDS011;128;48.770;9.198;2024-01-30T08:31:04;15.83;;;7.53;;
287;SDS011;128;48.770;9.198;2024-01-30T08:33:30;21.13;;;7.10;;
287;SDS011;128;48.770;9.198;2024-01-30T08:35:56;12.53;;;6.70;;
287;SDS011;128;48.770;9.198;2024-01-30T08:38:22;12.33;;;5.67;;
287;SDS011;128;48.770;9.198;2024-01-30T08:40:49;13.50;;;6.50;;
287;SDS011;128;48.770;9.198;2024-01-30T08:43:15;16.83;;;7.80;;
287;SDS011;128;48.770;9.198;2024-01-30T08:45:41;14.60;;;7.63;;
287;SDS011;128;48.770;9.198;2024-01-30T08:48:07;13.57;;;7.83;;
287;SDS011;128;48.770;9.198;2024-01-30T08:50:33;17.13;;;9.93;;
287;SDS011;128;48.770;9.198;2024-01-30T08:52:59;13.57;;;8.60;;
287;SDS011;128;48.770;9.198;2024-01-30T08:55:25;17.93;;;9.80;;
287;SDS011;128;48.770;9.198;2024-01-30T08:57:51;20.80;;;8.77;;
287;SDS011;128;48.770;9.198;2024-01-30T09:00:18;18.13;;;9.97;;
287;SDS011;128;48.770;9.198;2024-01-30T09:02:44;19.50;;;10.57;;
287;SDS011;128;48.770;9.198;2024-01-30T09:05:10;14.90;;;10.30;;
287;SDS011;128;48.770;9.198;2024-01-30T09:07:36;17.37;;;10.07;;
287;SDS011;128;48.770;9.198;2024-01-30T09:10:02;20.30;;;9.23;;
287;SDS011;128;48.770;9.198;2024-01-30T09:12:28;24.13;;;10.70;;
287;SDS011;128;48.770;9.198;2024-01-30T09:14:54;26.10;;;10.37;;
287;SDS011;128;48.770;9.198;2024-01-30T09:17:20;18.13;;;10.23;;
287;SDS011;128;48.770;9.198;2024-01-30T09:19:46;21.13;;;9.97;;
287;SDS011;128;48.770;9.198;2024-01-30T09:22:12;19.17;;;10.83;;
287;SDS011;128;48.770;9.198;2024-01-30T09:24:38;26.23;;;11.00;;
287;SDS011;128;48.770;9.198;2024-01-30T09:27:04;16.17;;;11.70;;
287;SDS011;128;48.770;9.198;2024-01-30T09:29:30;18.70;;;10.37;;
287;SDS011;128;48.770;9.198;2024-01-30T09:31:56;22.93;;;11.50;;
287;SDS011;128;48.770;9.198;2024-01-30T09:34:22;22.67;;;10.63;;
287;SDS011;128;48.770;9.198;2024-01-30T09:36:48;26.77;;;10.53;;
287;SDS011;128;48.770;9.198;2024-01-30T09:39:14;20.87;;;10.10;;
287;SDS011;128;48.770;9.198;2024-01-30T09:41:44;19.43;;;9.80;;
287;SDS011;128;48.770;9.198;2024-01-30T09:44:11;18.50;;;9.13;;
287;SDS011;128;48.770;9.198;2024-01-30T09:46:37;18.90;;;9.80;;
287;SDS011;128;48.770;9.198;2024-01-30T09:49:03;19.40;;;10.03;;
287;SDS011;128;48.770;9.198;2024-01-30T09:51:30;14.63;;;8.20;;
287;SDS011;128;48.770;9.198;2024-01-30T09:53:56;18.40;;;8.77;;
287;SDS011;128;48.770;9.198;2024-01-30T09:56:22;15.30;;;8.60;;
287;SDS011;128;48.770;9.198;2024-01-30T09:58:48;16.30;;;9.23;;
287;SDS011;128;48.770;9.198;2024-01-30T10:01:14;15.60;;;8.50;;
287;SDS011;128;48.770;9.198;2024-01-30T10:03:43;18.67;;;8.63;;
287;SDS011;128;48.770;9.198;2024-01-30T10:06:09;13.17;;;8.83;;
287;SDS011;128;48.770;9.198;2024-01-30T10:08:35;18.67;;;8.93;;
287;SDS011;128;48.770;9.198;2024-01-30T10:11:02;17.93;;;9.60;;
287;SDS011;128;48.770;9.198;2024-01-30T10:13:28;20.03;;;10.23;;
287;SDS011;128;48.770;9.198;2024-01-30T10:15:54;21.97;;;12.07;;
287;SDS011;128;48.770;9.198;2024-01-30T10:18:24;21.53;;;10.70;;
287;SDS011;128;48.770;9.198;2024-01-30T10:20:51;20.60;;;11.17;;
287;SDS011;128;48.770;9.198;2024-01-30T10:23:17;17.73;;;10.23;;
287;SDS011;128;48.770;9.198;2024-01-30T10:25:44;26.20;;;11.20;;
287;SDS011;128;48.770;9.198;2024-01-30T10:28:11;21.03;;;11.00;;
287;SDS011;128;48.770;9.198;2024-01-30T10:30:37;23.20;;;10.87;;
287;SDS011;128;48.770;9.198;2024-01-30T10:33:03;21.83;;;11.00;;
287;SDS011;128;48.770;9.198;2024-01-30T10:35:29;26.27;;;11.13;;
287;SDS011;128;48.770;9.198;2024-01-30T10:37:55;24.83;;;12.00;;
287;SDS011;128;48.770;9.198;2024-01-30T10:40:28;24.10;;;12.27;;
287;SDS011;128;48.770;9.198;2024-01-30T10:42:55;21.87;;;11.10;;
287;SDS011;128;48.770;9.198;2024-01-30T10:45:21;19.30;;;10.47;;
287;SDS011;128;48.770;9.198;2024-01-30T10:47:48;27.17;;;10.10;;
287;SDS011;128;48.770;9.198;2024-01-30T10:50:15;22.80;;;11.07;;
287;SDS011;128;48.770;9.198;2024-01-30T10:52:41;18.57;;;11.40;;
287;SDS011;128;48.770;9.198;2024-01-30T10:55:08;22.23;;;11.30;;
287;SDS011;128;48.770;9.198;2024-01-30T10:57:35;31.33;;;13.80;;
287;SDS011;128;48.770;9.198;2024-01-30T11:00:02;21.43;;;11.53;;
287;SDS011;128;48.770;9.198;2024-01-30T11:02:30;19.90;;;11.43;;
287;SDS011;128;48.770;9.198;2024-01-30T11:04:57;22.10;;;10.70;;
287;SDS011;128;48.770;9.198;2024-01-30T11:07:24;22.20;;;12.27;;
287;SDS011;128;48.770;9.198;2024-01-30T11:09:50;20.50;;;10.80;;
287;SDS011;128;48.770;9.198;2024-01-30T11:12:21;15.23;;;9.53;;
287;SDS011;128;48.770;9.198;2024-01-30T11:14:47;21.97;;;10.43;;
287;SDS011;128;48.770;9.198;2024-01-30T11:17:13;20.70;;;10.53;;
287;SDS011;128;48.770;9.198;2024-01-30T11:19:41;22.23;;;10.87;;
287;SDS011;128;48.770;9.198;2024-01-30T11:22:07;23.20;;;12.63;;
287;SDS011;128;48.770;9.198;2024-01-30T11:24:42;28.93;;;11.93;;
287;SDS011;128;48.770;9.198;2024-01-30T11:27:09;23.70;;;11.10;;
287;SDS011;128;48.770;9.198;2024-01-30T11:29:38;21.33;;;12.07;;
287;SDS011;128;48.770;9.198;2024-01-30T11:32:05;22.10;;;10.57;;
287;SDS011;128;48.770;9.198;2024-01-30T11:34:32;21.23;;;10.70;;
287;SDS011;128;48.770;9.198;2024-01-30T11:37:03;22.00;;;10.03;;
287;SDS011;128;48.770;9.198;2024-01-30T11:39:29;22.67;;;10.63;;
287;SDS011;128;48.770;9.198;2024-01-30T11:41:55;21.70;;;10.30;;
287;SDS011;128;48.770;9.198;2024-01-30T11:44:22;20.83;;;11.50;;
287;SDS011;128;48.770;9.198;2024-01-30T11:46:48;19.40;;;10.00;;
287;SDS011;128;48.770;9.198;2024-01-30T11:49:14;18.43;;;10.80;;
287;SDS011;128;48.770;9.198;2024-01-30T11:51:40;21.17;;;10.00;;
287;SDS011;128;48.770;9.198;2024-01-30T11:54:07;21.97;;;10.57;;
287;SDS011;128;48.770;9.198;2024-01-30T11:56:33;20.47;;;10.30;;
287;SDS011;128;48.770;9.198;2024-01-30T11:58:59;20.30;;;9.57;;
287;SDS011;128;48.770;9.198;2024-01-30T12:01:25;19.60;;;10.50;;
287;SDS011;128;48.770;9.198;2024-01-30T12:03:51;20.07;;;11.20;;
287;SDS011;128;48.770;9.198;2024-01-30T12:06:17;21.47;;;9.57;;
287;SDS011;128;48.770;9.198;2024-01-30T12:08:43;24.53;;;11.90;;
287;SDS011;128;48.770;9.198;2024-01-30T12:11:19;18.50;;;10.93;;
287;SDS011;128;48.770;9.198;2024-01-30T12:13:45;24.50;;;12.33;;
287;SDS011;128;48.770;9.198;2024-01-30T12:16:11;21.20;;;10.10;;
287;SDS011;128;48.770;9.198;2024-01-30T12:18:38;19.63;;;11.60;;
287;SDS011;128;48.770;9.198;2024-01-30T12:21:04;19.60;;;11.00;;
287;SDS011;128;48.770;9.198;2024-01-30T12:23:30;25.30;;;11.33;;
287;SDS011;128;48.770;9.198;2024-01-30T12:25:56;27.90;;;11.23;;
287;SDS011;128;48.770;9.198;2024-01-30T12:28:22;25.07;;;11.00;;
287;SDS011;128;48.770;9.198;2024-01-30T12:30:48;31.30;;;12.23;;
287;SDS011;128;48.770;9.198;2024-01-30T12:33:17;29.40;;;11.47;;
287;SDS011;128;48.770;9.198;2024-01-30T12:35:46;24.90;;;10.67;;
287;SDS011;128;48.770;9.198;2024-01-30T12:38:13;19.93;;;11.00;;
287;SDS011;128;48.770;9.198;2024-01-30T12:40:39;19.33;;;10.40;;
287;SDS011;128;48.770;9.198;2024-01-30T12:43:05;21.33;;;11.60;;
287;SDS011;128;48.770;9.198;2024-01-30T12:45:31;27.80;;;12.47;;
287;SDS011;128;48.770;9.198;2024-01-30T12:47:57;23.80;;;11.33;;
287;SDS011;128;48.770;9.198;2024-01-30T12:50:23;25.63;;;11.60;;
287;SDS011;128;48.770;9.198;2024-01-30T12:52:49;30.07;;;10.43;;
287;SDS011;128;48.770;9.198;2024-01-30T12:55:15;33.00;;;12.77;;
287;SDS011;128;48.770;9.198;2024-01-30T12:57:41;29.70;;;11.20;;
287;SDS011;128;48.770;9.198;2024-01-30T13:00:08;34.43;;;11.07;;
287;SDS011;128;48.770;9.198;2024-01-30T13:02:34;20.63;;;10.20;;
287;SDS011;128;48.770;9.198;2024-01-30T13:05:05;21.53;;;10.00;;
287;SDS011;128;48.770;9.198;2024-01-30T13:07:31;31.23;;;9.77;;
287;SDS011;128;48.770;9.198;2024-01-30T13:09:57;24.23;;;11.03;;
287;SDS011;128;48.770;9.198;2024-01-30T13:12:28;17.80;;;9.40;;
287;SDS011;128;48.770;9.198;2024-01-30T13:14:54;19.60;;;9.80;;
287;SDS011;128;48.770;9.198;2024-01-30T13:17:20;19.50;;;9.53;;
287;SDS011;128;48.770;9.198;2024-01-30T13:19:46;28.10;;;10.37;;
287;SDS011;128;48.770;9.198;2024-01-30T13:22:14;21.00;;;10.47;;
287;SDS011;128;48.770;9.198;2024-01-30T13:24:40;19.97;;;10.53;;
287;SDS011;128;48.770;9.198;2024-01-30T13:27:06;20.87;;;9.67;;
287;SDS011;128;48.770;9.198;2024-01-30T13:29:33;24.07;;;10.30;;
287;SDS011;128;48.770;9.198;2024-01-30T13:31:59;26.90;;;9.50;;
287;SDS011;128;48.770;9.198;2024-01-30T13:34:25;18.40;;;8.20;;
287;SDS011;128;48.770;9.198;2024-01-30T13:36:51;19.63;;;9.03;;
287;SDS011;128;48.770;9.198;2024-01-30T13:39:17;26.10;;;9.80;;
287;SDS011;128;48.770;9.198;2024-01-30T13:41:43;25.97;;;10.20;;
287;SDS011;128;48.770;9.198;2024-01-30T13:44:09;24.97;;;10.47;;
287;SDS011;128;48.770;9.198;2024-01-30T13:46:35;25.73;;;10.10;;
287;SDS011;128;48.770;9.198;2024-01-30T13:49:01;17.97;;;8.63;;
287;SDS011;128;48.770;9.198;2024-01-30T13:51:28;24.20;;;10.10;;
287;SDS011;128;48.770;9.198;2024-01-30T13:53:54;20.53;;;8.60;;
287;SDS011;128;48.770;9.198;2024-01-30T13:56:20;22.80;;;9.70;;
287;SDS011;128;48.770;9.198;2024-01-30T13:58:48;28.20;;;9.33;;
287;SDS011;128;48.770;9.198;2024-01-30T14:01:14;22.10;;;9.30;;
287;SDS011;128;48.770;9.198;2024-01-30T14:03:40;22.17;;;10.00;;
287;SDS011;128;48.770;9.198;2024-01-30T14:06:06;24.63;;;9.50;;
287;SDS011;128;48.770;9.198;2024-01-30T14:08:32;21.93;;;9.23;;
287;SDS011;128;48.770;9.198;2024-01-30T14:10:58;25.80;;;10.10;;
287;SDS011;128;48.770;9.198;2024-01-30T14:13:24;19.63;;;9.67;;
287;SDS011;128;48.770;9.198;2024-01-30T14:15:53;28.67;;;10.03;;
287;SDS011;128;48.770;9.198;2024-01-30T14:18:19;25.83;;;9.47;;
287;SDS011;128;48.770;9.198;2024-01-30T14:20:45;25.87;;;10.80;;
287;SDS011;128;48.770;9.198;2024-01-30T14:23:11;25.57;;;9.70;;
287;SDS011;128;48.770;9.198;2024-01-30T14:25:37;25.97;;;9.80;;
287;SDS011;128;48.770;9.198;2024-01-30T14:28:03;29.83;;;10.83;;
287;SDS011;128;48.770;9.198;2024-01-30T14:30:29;19.50;;;9.60;;
287;SDS011;128;48.770;9.198;2024-01-30T14:32:55;20.20;;;10.20;;
287;SDS011;128;48.770;9.198;2024-01-30T14:35:21;17.80;;;9.10;;
287;SDS011;128;48.770;9.198;2024-01-30T14:37:47;21.33;;;10.80;;
287;SDS011;128;48.770;9.198;2024-01-30T14:40:13;28.87;;;10.87;;
287;SDS011;128;48.770;9.198;2024-01-30T14:42:39;19.97;;;9.70;;
287;SDS011;128;48.770;9.198;2024-01-30T14:45:05;20.13;;;10.10;;
287;SDS011;128;48.770;9.198;2024-01-30T14:47:31;31.00;;;11.07;;
287;SDS011;128;48.770;9.198;2024-01-30T14:49:57;21.30;;;9.50;;
287;SDS011;128;48.770;9.198;2024-01-30T14:52:23;17.77;;;9.37;;
287;SDS011;128;48.770;9.198;2024-01-30T14:54:50;23.50;;;9.40;;
287;SDS011;128;48.770;9.198;2024-01-30T14:57:16;25.63;;;10.53;;
287;SDS011;128;48.770;9.198;2024-01-30T14:59:42;25.13;;;8.80;;
287;SDS011;128;48.770;9.198;2024-01-30T15:02:08;20.17;;;9.30;;
287;SDS011;128;48.770;9.198;2024-01-30T15:04:34;19.43;;;10.17;;
287;SDS011;128;48.770;9.198;2024-01-30T15:07:00;22.10;;;9.10;;
287;SDS011;128;48.770;9.198;2024-01-30T15:09:26;17.83;;;9.70;;
287;SDS011;128;48.770;9.198;2024-01-30T15:11:52;19.93;;;10.07;;
287;SDS011;128;48.770;9.198;2024-01-30T15:14:18;27.63;;;10.80;;
287;SDS011;128;48.770;9.198;2024-01-30T15:16:44;20.90;;;10.13;;
287;SDS011;128;48.770;9.198;2024-01-30T15:19:10;25.00;;;9.93;;
287;SDS011;128;48.770;9.198;2024-01-30T15:21:36;26.53;;;10.20;;
287;SDS011;128;48.770;9.198;2024-01-30T15:24:02;22.83;;;10.27;;